Time;durP1;ratioP1;P1;durP2;ratioP2;P2;SDS_P1;SDS_P2;PMS_P1;PMS_P2;Temp;Humidity;BMP_temperature;BMP_pressure;BME280_temperature;BME280_humidity;BME280_pressure;Samples;Min_cycle;Max_cycle;Signal;HPM_P1;HPM_P2
2024/01/16 00:00:15;;;;;;;4.30;2.12;;;;;;;-1.57;100.00;97504.00;4484003;32;20169;-75
2024/01/16 00:02:43;;;;;;;6.82;2.17;;;;;;;-1.62;100.00;97504.28;4484227;32;20118;-75
2024/01/16 00:05:11;;;;;;;4.40;1.87;;;;;;;-1.67;100.00;97510.63;4483970;31;20080;-76
2024/01/16 00:07:39;;;;;;;4.10;1.62;;;;;;;-1.71;100.00;97507.41;4483608;32;20092;-76
2024/01/16 00:10:08;;;;;;;5.05;1.52;;;;;;;-1.61;100.00;97521.34;4483842;31;20426;-76
2024/01/16 00:12:35;;;;;;;3.22;2.30;;;;;;;-1.57;100.00;97519.44;4482474;32;20505;-76
2024/01/16 00:15:03;;;;;;;4.85;1.80;;;;;;;-1.54;100.00;97529.50;4483929;31;20569;-76
2024/01/16 00:17:30;;;;;;;2.90;1.58;;;;;;;-1.56;100.00;97528.78;4482270;32;20118;-76
2024/01/16 00:20:01;;;;;;;4.28;1.83;;;;;;;-1.51;100.00;97536.22;4483701;31;20395;-76
2024/01/16 00:22:38;;;;;;;3.28;1.67;;;;;;;-1.50;100.00;97528.41;4483576;31;20118;-76
2024/01/16 00:25:07;;;;;;;3.05;1.55;;;;;;;-1.44;100.00;97532.34;4483657;31;20454;-76
2024/01/16 00:27:34;;;;;;;4.43;1.75;;;;;;;-1.47;100.00;97529.97;4483391;31;20161;-76
2024/01/16 00:30:02;;;;;;;4.10;1.77;;;;;;;-1.41;100.00;97536.47;4490280;31;20125;-76
2024/01/16 00:32:42;;;;;;;2.40;1.40;;;;;;;-1.35;100.00;97526.63;4501874;31;20089;-76
2024/01/16 00:35:10;;;;;;;2.40;1.27;;;;;;;-1.30;100.00;97534.91;4501438;31;20111;-75
2024/01/16 00:37:39;;;;;;;2.25;1.25;;;;;;;-1.29;100.00;97544.28;4501377;31;20092;-76
2024/01/16 00:40:08;;;;;;;2.58;1.45;;;;;;;-1.20;100.00;97544.63;4501543;31;20475;-75
2024/01/16 00:42:36;;;;;;;1.73;1.20;;;;;;;-1.18;100.00;97548.75;4501438;31;20209;-76
2024/01/16 00:45:04;;;;;;;5.07;1.58;;;;;;;-1.15;100.00;97555.44;4501667;31;20088;-76
2024/01/16 00:47:32;;;;;;;2.78;1.50;;;;;;;-1.10;100.00;97561.94;4501415;31;20110;-75
2024/01/16 00:50:02;;;;;;;2.92;1.55;;;;;;;-1.10;100.00;97576.56;4501587;31;20168;-76
2024/01/16 00:52:30;;;;;;;2.75;1.48;;;;;;;-1.07;100.00;97572.03;4501349;31;20131;-76
2024/01/16 00:54:57;;;;;;;3.33;1.85;;;;;;;-1.07;100.00;97578.94;4501674;31;20126;-76
2024/01/16 00:57:25;;;;;;;5.07;1.73;;;;;;;-1.04;100.00;97586.47;4501519;31;20130;-76
2024/01/16 00:59:52;;;;;;;4.57;1.87;;;;;;;-1.02;100.00;97588.94;4501446;31;20092;-76
2024/01/16 01:02:20;;;;;;;2.62;1.70;;;;;;;-1.00;100.00;97590.50;4501812;31;20092;-76
2024/01/16 01:04:47;;;;;;;4.12;1.62;;;;;;;-0.91;100.00;97602.78;4501457;31;20100;-76
2024/01/16 01:07:15;;;;;;;3.75;1.73;;;;;;;-0.83;100.00;97602.31;4501411;31;20114;-76
2024/01/16 01:09:43;;;;;;;4.07;1.73;;;;;;;-0.78;100.00;97600.25;4501598;31;20149;-76
2024/01/16 01:12:10;;;;;;;2.85;1.75;;;;;;;-0.69;100.00;97611.75;4499980;31;20122;-76
2024/01/16 01:14:38;;;;;;;4.00;1.60;;;;;;;-0.65;100.00;97613.19;4501166;31;20100;-76
2024/01/16 01:17:06;;;;;;;3.62;2.05;;;;;;;-0.64;100.00;97614.84;4501168;31;20422;-76
2024/01/16 01:19:34;;;;;;;4.72;1.60;;;;;;;-0.63;100.00;97615.69;4487759;31;20443;-76
2024/01/16 01:22:02;;;;;;;3.90;1.70;;;;;;;-0.63;100.00;97613.94;4485446;31;20156;-76
2024/01/16 01:24:29;;;;;;;3.97;2.12;;;;;;;-0.58;100.00;97623.94;4485278;31;20144;-76
2024/01/16 01:26:57;;;;;;;4.40;2.20;;;;;;;-0.64;100.00;97619.16;4485287;32;20587;-76
2024/01/16 01:29:25;;;;;;;4.40;2.05;;;;;;;-0.64;100.00;97625.13;4487087;31;20114;-76
2024/01/16 01:31:53;;;;;;;4.10;1.83;;;;;;;-0.61;100.00;97630.06;4501006;31;20130;-76
2024/01/16 01:34:20;;;;;;;2.75;1.30;;;;;;;-0.63;100.00;97631.13;4500983;31;20096;-76
2024/01/16 01:36:50;;;;;;;2.87;1.73;;;;;;;-0.64;100.00;97627.69;4501090;31;20087;-76
2024/01/16 01:39:17;;;;;;;3.22;1.92;;;;;;;-0.67;100.00;97630.47;4501181;31;20171;-76
2024/01/16 01:41:45;;;;;;;4.95;2.42;;;;;;;-0.73;100.00;97636.84;4501000;31;20084;-76
2024/01/16 01:44:15;;;;;;;3.20;1.55;;;;;;;-0.77;100.00;97635.34;4501104;31;20149;-76
2024/01/16 01:46:44;;;;;;;3.67;1.52;;;;;;;-0.86;100.00;97632.50;4501379;31;20106;-76
2024/01/16 01:49:13;;;;;;;5.70;2.50;;;;;;;-0.85;100.00;97641.88;4500883;31;20087;-76
2024/01/16 01:51:42;;;;;;;5.60;2.10;;;;;;;-0.94;100.00;97638.97;4499742;31;20198;-76
2024/01/16 01:54:10;;;;;;;4.47;2.20;;;;;;;-0.97;100.00;97641.72;4499734;31;20472;-76
2024/01/16 01:56:39;;;;;;;5.07;2.35;;;;;;;-1.01;100.00;97642.81;4499747;31;20096;-76
2024/01/16 01:59:08;;;;;;;4.20;2.20;;;;;;;-1.03;100.00;97646.37;4500935;31;20823;-76
2024/01/16 02:01:35;;;;;;;4.32;1.98;;;;;;;-0.99;100.00;97645.28;4500959;31;20096;-76
2024/01/16 02:04:05;;;;;;;4.75;2.08;;;;;;;-1.08;100.00;97646.66;4500862;31;20123;-76
2024/01/16 02:06:35;;;;;;;5.12;1.95;;;;;;;-1.05;100.00;97656.75;4501107;31;20462;-76
2024/01/16 02:09:02;;;;;;;7.40;2.60;;;;;;;-1.12;100.00;97660.59;4500659;31;20119;-76
2024/01/16 02:11:29;;;;;;;5.55;2.17;;;;;;;-1.17;100.00;97662.63;4501057;31;20161;-76
2024/01/16 02:13:56;;;;;;;4.85;2.40;;;;;;;-1.20;100.00;97665.41;4500822;31;20136;-76
2024/01/16 02:16:24;;;;;;;5.90;2.22;;;;;;;-1.18;100.00;97666.13;4499685;31;20174;-76
2024/01/16 02:18:52;;;;;;;7.20;2.65;;;;;;;-1.19;100.00;97675.56;4491974;31;20153;-76
2024/01/16 02:21:25;;;;;;;5.82;2.83;;;;;;;-1.23;100.00;97676.66;4485343;31;20480;-76
2024/01/16 02:23:53;;;;;;;7.47;2.62;;;;;;;-1.18;100.00;97681.53;4483820;32;20113;-76
2024/01/16 02:26:20;;;;;;;6.80;2.60;;;;;;;-1.19;100.00;97670.44;4484960;32;20459;-76
2024/01/16 02:28:48;;;;;;;5.60;2.53;;;;;;;-1.22;100.00;97686.03;4485024;31;20112;-76
2024/01/16 02:31:15;;;;;;;5.97;2.75;;;;;;;-1.27;100.00;97686.31;4498631;31;20096;-76
2024/01/16 02:33:43;;;;;;;7.37;3.00;;;;;;;-1.24;100.00;97687.88;4500823;31;20097;-76
2024/01/16 02:36:11;;;;;;;5.25;2.58;;;;;;;-1.21;100.00;97692.00;4500915;31;20088;-76
2024/01/16 02:38:39;;;;;;;6.75;3.05;;;;;;;-1.20;100.00;97691.09;4500511;31;20491;-76
2024/01/16 02:41:13;;;;;;;7.07;2.62;;;;;;;-1.16;100.00;97690.81;4500656;31;20088;-76
2024/01/16 02:43:40;;;;;;;8.23;3.00;;;;;;;-1.22;100.00;97698.06;4500886;31;20155;-76
2024/01/16 02:46:10;;;;;;;5.80;2.65;;;;;;;-1.19;100.00;97705.59;4500727;31;20144;-76
2024/01/16 02:48:38;;;;;;;7.57;3.50;;;;;;;-1.21;100.00;97697.13;4500680;31;20156;-76
2024/01/16 02:51:07;;;;;;;4.43;2.40;;;;;;;-1.20;100.00;97714.22;4500656;31;20183;-76
2024/01/16 02:53:34;;;;;;;8.68;3.05;;;;;;;-1.14;100.00;97717.25;4499768;31;20092;-76
2024/01/16 02:56:03;;;;;;;5.25;3.08;;;;;;;-1.15;100.00;97717.31;4500540;31;20465;-76
2024/01/16 02:58:32;;;;;;;8.93;2.90;;;;;;;-1.17;100.00;97724.31;4500708;31;20091;-76
2024/01/16 03:00:59;;;;;;;5.35;2.97;;;;;;;-1.13;100.00;97720.66;4500507;31;20100;-76
2024/01/16 03:03:26;;;;;;;8.68;3.50;;;;;;;-1.10;100.00;97726.44;4500595;31;20142;-76
2024/01/16 03:05:55;;;;;;;4.65;2.92;;;;;;;-1.05;100.00;97728.72;4500721;31;20088;-76
2024/01/16 03:08:31;;;;;;;6.43;2.58;;;;;;;-1.02;100.00;97733.69;4500358;31;20064;-76
2024/01/16 03:10:59;;;;;;;4.55;2.45;;;;;;;-1.00;100.00;97742.16;4500460;31;20120;-76
2024/01/16 03:13:28;;;;;;;6.65;2.37;;;;;;;-0.96;100.00;97737.66;4500428;31;20130;-76
2024/01/16 03:15:57;;;;;;;3.80;2.00;;;;;;;-1.00;100.00;97731.88;4500276;31;20087;-76
2024/01/16 03:18:26;;;;;;;6.72;2.62;;;;;;;-1.00;100.00;97739.59;4494478;31;20145;-76
2024/01/16 03:20:56;;;;;;;4.93;2.15;;;;;;;-0.96;100.00;97747.94;4484380;31;20104;-76
2024/01/16 03:23:23;;;;;;;4.30;2.50;;;;;;;-0.98;100.00;97745.44;4483590;32;20187;-75
2024/01/16 03:25:51;;;;;;;6.32;2.53;;;;;;;-0.93;100.00;97743.44;4484515;31;20101;-76
2024/01/16 03:28:19;;;;;;;3.62;1.80;;;;;;;-0.97;100.00;97748.84;4484561;32;20088;-76
2024/01/16 03:30:47;;;;;;;3.80;2.10;;;;;;;-0.99;100.00;97755.81;4495044;31;20124;-76
2024/01/16 03:33:15;;;;;;;5.50;2.37;;;;;;;-0.99;100.00;97753.25;4500363;31;20727;-76
2024/01/16 03:35:42;;;;;;;4.78;2.75;;;;;;;-0.98;100.00;97754.91;4499916;31;20092;-76
2024/01/16 03:38:10;;;;;;;5.05;2.35;;;;;;;-1.02;100.00;97759.41;4500461;31;20083;-76
2024/01/16 03:40:37;;;;;;;6.12;2.20;;;;;;;-0.99;100.00;97768.69;4499975;31;20104;-76
2024/01/16 03:43:06;;;;;;;5.07;2.45;;;;;;;-1.07;100.00;97772.50;4499059;31;20097;-76
2024/01/16 03:45:33;;;;;;;5.22;2.83;;;;;;;-1.05;100.00;97771.62;4500024;31;20088;-76
2024/01/16 03:48:03;;;;;;;5.32;2.50;;;;;;;-1.01;100.00;97767.94;4500256;31;20088;-76
2024/01/16 03:50:30;;;;;;;4.57;1.90;;;;;;;-0.96;100.00;97766.75;4499862;31;20213;-76
2024/01/16 03:52:58;;;;;;;5.05;2.55;;;;;;;-1.00;100.00;97772.16;4500076;31;20085;-76
2024/01/16 03:55:31;;;;;;;4.07;2.35;;;;;;;-1.02;100.00;97772.25;4499952;31;20500;-76
2024/01/16 03:57:58;;;;;;;4.68;2.45;;;;;;;-1.03;100.00;97774.91;4499846;31;20114;-75
2024/01/16 04:00:26;;;;;;;4.65;2.28;;;;;;;-1.02;100.00;97781.72;4499869;31;20525;-75
2024/01/16 04:02:55;;;;;;;4.70;2.28;;;;;;;-1.03;100.00;97774.91;4499778;31;20117;-76
2024/01/16 04:05:22;;;;;;;4.87;1.92;;;;;;;-0.99;100.00;97784.91;4501878;31;20103;-76
2024/01/16 04:07:49;;;;;;;3.60;2.10;;;;;;;-0.98;100.00;97786.59;4500727;31;20118;-76
2024/01/16 04:10:17;;;;;;;5.03;2.42;;;;;;;-1.01;100.00;97788.53;4501851;31;20485;-76
2024/01/16 04:12:45;;;;;;;4.65;1.95;;;;;;;-0.98;100.00;97791.72;4501869;31;20118;-76
2024/01/16 04:15:12;;;;;;;4.03;1.85;;;;;;;-0.94;100.00;97800.94;4501894;31;20484;-76
2024/01/16 04:17:40;;;;;;;6.55;2.25;;;;;;;-0.92;100.00;97796.50;4499640;31;20087;-76
2024/01/16 04:20:10;;;;;;;4.07;1.70;;;;;;;-0.95;100.00;97799.25;4486115;31;20100;-76
2024/01/16 04:22:37;;;;;;;3.35;1.67;;;;;;;-0.88;100.00;97797.16;4485942;31;20120;-76
2024/01/16 04:25:05;;;;;;;9.55;2.05;;;;;;;-0.82;100.00;97798.53;4485890;31;20163;-75
2024/01/16 04:27:32;;;;;;;4.03;2.03;;;;;;;-0.75;100.00;97810.12;4486111;31;20450;-76
2024/01/16 04:30:01;;;;;;;4.72;2.15;;;;;;;-0.83;100.00;97802.88;4491485;31;20131;-76
2024/01/16 04:32:29;;;;;;;2.83;1.55;;;;;;;-0.75;100.00;97813.50;4501742;31;20108;-76
2024/01/16 04:34:57;;;;;;;2.85;1.92;;;;;;;-0.75;100.00;97808.38;4501359;31;20084;-75
2024/01/16 04:37:24;;;;;;;2.72;1.73;;;;;;;-0.75;100.00;97817.84;4501834;31;20092;-76
2024/01/16 04:39:53;;;;;;;3.22;2.00;;;;;;;-0.83;100.00;97820.00;4501619;31;20201;-76
2024/01/16 04:42:21;;;;;;;5.25;2.20;;;;;;;-0.81;100.00;97824.16;4501740;31;20116;-76
2024/01/16 04:44:48;;;;;;;4.40;2.00;;;;;;;-0.87;100.00;97834.00;4501596;31;20114;-76
2024/01/16 04:47:16;;;;;;;3.22;1.50;;;;;;;-0.86;100.00;97830.47;4501519;31;20101;-76
2024/01/16 04:49:44;;;;;;;8.25;1.77;;;;;;;-0.87;100.00;97829.66;4501526;31;20436;-76
2024/01/16 04:52:11;;;;;;;4.00;1.60;;;;;;;-0.90;100.00;97840.94;4500426;31;20108;-75
2024/01/16 04:54:39;;;;;;;3.20;1.48;;;;;;;-0.87;100.00;97839.94;4501347;31;20096;-76
2024/01/16 04:57:09;;;;;;;3.58;1.37;;;;;;;-0.96;100.00;97846.44;4501733;31;20804;-75
2024/01/16 04:59:36;;;;;;;3.95;1.80;;;;;;;-1.05;100.00;97849.53;4501452;31;20103;-76
2024/01/16 05:02:06;;;;;;;4.53;1.90;;;;;;;-1.09;100.00;97853.19;4501361;31;20092;-76
2024/01/16 05:04:36;;;;;;;3.12;1.50;;;;;;;-1.15;100.00;97848.41;4501436;31;20451;-75
2024/01/16 05:07:04;;;;;;;3.67;1.98;;;;;;;-1.05;99.77;97861.56;4500662;31;20451;-75
2024/01/16 05:09:32;;;;;;;3.25;1.67;;;;;;;-1.12;100.00;97848.22;4500685;31;20146;-76
2024/01/16 05:12:00;;;;;;;1.98;1.33;;;;;;;-1.12;99.27;97866.22;4501119;31;20112;-75
2024/01/16 05:14:27;;;;;;;4.45;1.60;;;;;;;-1.13;98.99;97862.00;4500574;31;20108;-76
2024/01/16 05:16:55;;;;;;;4.43;1.85;;;;;;;-1.14;98.90;97870.62;4500391;31;20497;-75
2024/01/16 05:19:22;;;;;;;3.62;1.67;;;;;;;-1.15;98.60;97876.66;4499598;31;20099;-75
2024/01/16 05:21:50;;;;;;;2.62;1.20;;;;;;;-1.12;98.56;97881.63;4500876;31;20205;-75
2024/01/16 05:24:17;;;;;;;4.25;1.70;;;;;;;-1.13;98.73;97880.00;4501033;31;20163;-75
2024/01/16 05:26:45;;;;;;;1.92;1.45;;;;;;;-1.13;99.10;97890.28;4500474;31;20152;-75
2024/01/16 05:29:13;;;;;;;3.70;1.77;;;;;;;-1.17;99.56;97883.66;4499945;31;20144;-75
2024/01/16 05:31:41;;;;;;;2.55;1.37;;;;;;;-1.23;100.00;97896.84;4499600;31;20130;-75
2024/01/16 05:34:09;;;;;;;7.57;1.95;;;;;;;-1.20;100.00;97904.37;4500518;31;20112;-75
2024/01/16 05:36:37;;;;;;;4.70;1.83;;;;;;;-1.22;100.00;97908.78;4507737;31;20600;-75
2024/01/16 05:39:05;;;;;;;6.00;2.00;;;;;;;-1.23;100.00;97912.25;4502701;31;20536;-75
2024/01/16 05:41:33;;;;;;;5.47;1.92;;;;;;;-1.24;100.00;97921.72;4516783;31;20144;-75
2024/01/16 05:44:03;;;;;;;4.28;2.22;;;;;;;-1.21;100.00;97913.84;4508209;31;20088;-75
2024/01/16 05:46:34;;;;;;;1.92;1.33;;;;;;;-1.25;100.00;97913.16;4500748;31;20101;-75
2024/01/16 05:49:01;;;;;;;4.22;1.67;;;;;;;-1.30;100.00;97916.91;4501126;31;20472;-75
2024/01/16 05:51:30;;;;;;;2.75;1.70;;;;;;;-1.27;100.00;97916.75;4486842;31;20630;-75
2024/01/16 05:53:58;;;;;;;3.25;1.98;;;;;;;-1.27;100.00;97919.31;4495587;31;20100;-75
2024/01/16 05:56:25;;;;;;;3.47;1.70;;;;;;;-1.29;100.00;97923.69;4500976;31;20091;-75
2024/01/16 05:58:55;;;;;;;2.40;1.95;;;;;;;-1.31;100.00;97920.37;4498833;31;20131;-75
2024/01/16 06:01:22;;;;;;;6.75;1.98;;;;;;;-1.27;100.00;97921.88;4500249;31;20100;-75
2024/01/16 06:03:50;;;;;;;2.35;1.55;;;;;;;-1.25;100.00;97928.56;4498335;31;20123;-75
2024/01/16 06:06:19;;;;;;;5.20;1.40;;;;;;;-1.28;100.00;97922.78;4499564;31;20100;-75
2024/01/16 06:08:48;;;;;;;3.35;1.75;;;;;;;-1.28;99.55;97931.31;4500252;31;20135;-75
2024/01/16 06:11:15;;;;;;;6.35;1.87;;;;;;;-1.34;99.31;97933.41;4503347;31;20483;-75
2024/01/16 06:13:43;;;;;;;1.77;1.15;;;;;;;-1.38;99.96;97943.00;4502901;31;20500;-75
2024/01/16 06:16:11;;;;;;;3.47;1.52;;;;;;;-1.48;100.00;97937.53;4495518;31;20147;-74
2024/01/16 06:18:39;;;;;;;5.75;2.10;;;;;;;-1.48;100.00;97949.56;4492954;31;20161;-74
2024/01/16 06:21:06;;;;;;;5.10;1.62;;;;;;;-1.55;100.00;97943.91;4499873;31;20095;-75
2024/01/16 06:23:34;;;;;;;4.15;2.37;;;;;;;-1.58;100.00;97940.69;4499475;31;20087;-74
2024/01/16 06:26:02;;;;;;;3.25;1.80;;;;;;;-1.55;99.73;97946.47;4499200;31;20508;-75
2024/01/16 06:28:31;;;;;;;4.78;1.75;;;;;;;-1.65;100.00;97943.59;4494871;31;20188;-75
2024/01/16 06:30:59;;;;;;;2.53;1.50;;;;;;;-1.62;99.77;97943.41;4499664;31;20440;-74
2024/01/16 06:33:29;;;;;;;3.95;1.90;;;;;;;-1.58;99.57;97950.97;4500375;31;20131;-75
2024/01/16 06:35:56;;;;;;;2.90;1.75;;;;;;;-1.58;98.97;97956.91;4500183;31;20103;-75
2024/01/16 06:38:25;;;;;;;2.87;1.60;;;;;;;-1.57;98.56;97963.72;4496001;31;20123;-74
2024/01/16 06:40:52;;;;;;;5.68;1.40;;;;;;;-1.53;98.14;97965.22;4494703;31;20140;-74
2024/01/16 06:43:20;;;;;;;4.20;1.73;;;;;;;-1.49;98.29;97971.00;4491829;31;20754;-75
2024/01/16 06:45:47;;;;;;;3.40;1.85;;;;;;;-1.53;98.55;97974.66;4484873;31;20122;-75
2024/01/16 06:48:15;;;;;;;6.80;1.73;;;;;;;-1.50;98.21;97985.59;4492438;31;20108;-73
2024/01/16 06:50:43;;;;;;;9.40;2.78;;;;;;;-1.50;98.68;98001.03;4487636;31;20125;-74
2024/01/16 06:53:13;;;;;;;4.50;1.48;;;;;;;-1.53;99.10;97996.03;4487519;31;20127;-73
2024/01/16 06:55:43;;;;;;;5.57;2.22;;;;;;;-1.43;98.65;97998.94;4489874;31;20106;-74
2024/01/16 06:58:13;;;;;;;3.53;1.98;;;;;;;-1.37;98.04;98008.06;4492384;31;20104;-75
2024/01/16 07:00:45;;;;;;;2.35;1.45;;;;;;;-1.30;98.15;98014.56;4495767;31;20088;-74
2024/01/16 07:03:13;;;;;;;2.67;1.98;;;;;;;-1.27;97.49;98009.25;4489392;31;20088;-74
2024/01/16 07:05:42;;;;;;;3.97;1.83;;;;;;;-1.09;95.97;98022.81;4486761;31;20118;-74
2024/01/16 07:08:11;;;;;;;5.47;2.50;;;;;;;-1.00;95.71;98030.06;4495697;31;20108;-74
2024/01/16 07:10:41;;;;;;;3.05;1.50;;;;;;;-0.88;94.74;98036.25;4490468;31;20171;-74
2024/01/16 07:13:14;;;;;;;12.68;1.92;;;;;;;-0.86;94.00;98044.75;4479966;31;20556;-73
2024/01/16 07:15:42;;;;;;;7.30;1.52;;;;;;;-0.84;93.30;98057.50;4482797;31;20091;-73
2024/01/16 07:18:20;;;;;;;2.33;1.50;;;;;;;-0.88;93.74;98056.00;4488310;31;20096;-75
2024/01/16 07:20:48;;;;;;;3.62;1.87;;;;;;;-0.88;93.85;98056.00;4492144;31;20509;-75
2024/01/16 07:23:15;;;;;;;5.05;2.12;;;;;;;-0.88;94.62;98058.59;4492513;31;20089;-74
2024/01/16 07:25:43;;;;;;;2.42;1.40;;;;;;;-0.81;94.35;98070.22;4498444;31;21298;-74
2024/01/16 07:28:11;;;;;;;2.53;1.87;;;;;;;-0.73;92.89;98073.19;4496578;31;20100;-74
2024/01/16 07:30:39;;;;;;;4.80;1.62;;;;;;;-0.65;91.80;98071.03;4488934;31;20479;-75
2024/01/16 07:33:07;;;;;;;2.50;2.05;;;;;;;-0.65;91.89;98071.03;4486165;31;20143;-74
2024/01/16 07:35:34;;;;;;;6.30;2.20;;;;;;;-0.57;91.56;98071.44;4485222;31;20083;-74
2024/01/16 07:38:02;;;;;;;2.30;1.48;;;;;;;-0.48;90.11;98077.00;4488055;31;20126;-75
2024/01/16 07:40:32;;;;;;;2.65;1.40;;;;;;;-0.39;89.59;98081.63;4491847;31;20152;-75
2024/01/16 07:43:00;;;;;;;4.45;1.62;;;;;;;-0.36;89.82;98086.59;4494564;31;20137;-76
2024/01/16 07:45:29;;;;;;;2.47;1.17;;;;;;;-0.26;88.47;98090.31;4492890;31;20118;-72
2024/01/16 07:47:58;;;;;;;3.85;1.62;;;;;;;-0.26;87.96;98092.91;4495774;31;20537;-73
2024/01/16 07:50:26;;;;;;;2.15;1.50;;;;;;;-0.16;87.86;98097.53;4485122;31;20140;-74
2024/01/16 07:52:55;;;;;;;2.28;1.27;;;;;;;-0.12;85.29;98101.56;4485731;31;20169;-73
2024/01/16 07:55:22;;;;;;;2.65;1.08;;;;;;;0.02;84.33;98101.63;4490665;31;20104;-73
2024/01/16 07:57:51;;;;;;;3.10;1.52;;;;;;;0.08;83.27;98101.28;4494481;31;20157;-74
2024/01/16 08:00:19;;;;;;;2.85;1.30;;;;;;;0.29;82.11;98106.13;4494762;31;20179;-73
2024/01/16 08:02:47;;;;;;;3.62;1.60;;;;;;;0.38;80.43;98118.47;4498058;31;20100;-74
2024/01/16 08:05:14;;;;;;;2.78;1.20;;;;;;;0.40;79.86;98120.94;4491259;31;20088;-73
2024/01/16 08:07:43;;;;;;;5.37;1.65;;;;;;;0.44;77.77;98125.84;4491720;31;20481;-74
2024/01/16 08:10:11;;;;;;;3.95;1.08;;;;;;;0.48;77.37;98129.06;4491350;31;20169;-73
2024/01/16 08:12:38;;;;;;;3.15;1.23;;;;;;;0.44;78.42;98132.72;4497527;31;20109;-74
2024/01/16 08:15:07;;;;;;;2.95;1.20;;;;;;;0.48;77.52;98134.19;4496731;31;20088;-72
2024/01/16 08:17:35;;;;;;;3.05;1.30;;;;;;;0.46;77.26;98156.66;4492549;31;20116;-73
2024/01/16 08:20:03;;;;;;;2.92;1.27;;;;;;;0.49;77.23;98146.19;4493025;31;20119;-74
2024/01/16 08:22:30;;;;;;;4.75;1.77;;;;;;;0.47;78.17;98156.56;4487951;31;20153;-74
2024/01/16 08:24:58;;;;;;;3.03;1.60;;;;;;;0.54;77.68;98154.47;4487166;31;20100;-76
2024/01/16 08:27:25;;;;;;;2.80;1.45;;;;;;;0.64;77.74;98150.44;4491837;31;20445;-77
2024/01/16 08:29:52;;;;;;;4.25;1.40;;;;;;;0.58;77.96;98165.44;4491293;31;20109;-76
2024/01/16 08:32:21;;;;;;;4.30;2.00;;;;;;;0.61;76.58;98158.34;4491322;31;20147;-76
2024/01/16 08:34:48;;;;;;;3.45;1.62;;;;;;;0.61;76.76;98162.69;4493311;31;20122;-76
2024/01/16 08:37:17;;;;;;;5.93;1.62;;;;;;;0.60;77.63;98169.56;4481070;31;20108;-76
2024/01/16 08:39:45;;;;;;;4.05;1.70;;;;;;;0.65;76.98;98174.44;4492104;31;20092;-73
2024/01/16 08:42:12;;;;;;;3.60;1.95;;;;;;;0.66;77.97;98174.34;4489091;31;20120;-75
2024/01/16 08:44:41;;;;;;;3.47;2.05;;;;;;;0.75;78.37;98174.75;4493515;31;20095;-73
2024/01/16 08:47:14;;;;;;;3.28;1.95;;;;;;;0.86;76.84;98175.78;4487443;31;20391;-76
2024/01/16 08:49:41;;;;;;;4.55;2.12;;;;;;;0.87;76.31;98172.28;4488978;31;20084;-77
2024/01/16 08:52:10;;;;;;;3.70;1.92;;;;;;;0.81;76.83;98171.81;4499742;31;20155;-75
2024/01/16 08:54:37;;;;;;;7.60;2.00;;;;;;;0.80;76.08;98175.31;4499304;31;20084;-75
2024/01/16 08:57:04;;;;;;;2.53;1.55;;;;;;;0.83;76.54;98180.28;4502363;31;20118;-72
2024/01/16 08:59:32;;;;;;;4.40;1.60;;;;;;;0.92;75.98;98176.34;4493990;31;20449;-73
2024/01/16 09:02:03;;;;;;;11.50;1.95;;;;;;;0.93;75.03;98181.41;4490217;31;20233;-73
2024/01/16 09:04:33;;;;;;;4.40;1.85;;;;;;;1.02;74.29;98182.59;4482717;31;20096;-73
2024/01/16 09:07:04;;;;;;;3.92;2.03;;;;;;;1.05;73.23;98178.09;4498267;31;20104;-72
2024/01/16 09:09:34;;;;;;;5.15;1.70;;;;;;;1.19;72.14;98187.56;4495611;31;20123;-75
2024/01/16 09:12:03;;;;;;;2.92;1.52;;;;;;;1.15;70.06;98190.44;4493140;31;20142;-72
2024/01/16 09:14:32;;;;;;;7.03;2.05;;;;;;;1.35;69.67;98192.66;4489333;31;20160;-74
2024/01/16 09:16:59;;;;;;;5.47;2.22;;;;;;;1.47;70.34;98188.50;4500328;31;20133;-74
2024/01/16 09:19:27;;;;;;;6.05;2.22;;;;;;;1.55;70.24;98183.66;4499512;31;20126;-74
2024/01/16 09:21:54;;;;;;;3.72;1.87;;;;;;;1.46;69.14;98194.56;4510509;31;20091;-73
2024/01/16 09:24:24;;;;;;;7.95;1.85;;;;;;;1.26;68.90;98200.09;4505280;31;20096;-73
2024/01/16 09:26:51;;;;;;;3.95;1.83;;;;;;;1.04;70.29;98194.47;4509528;31;20164;-73
2024/01/16 09:29:22;;;;;;;5.90;2.08;;;;;;;1.01;69.68;98196.41;4493762;31;20100;-73
2024/01/16 09:31:49;;;;;;;5.28;2.50;;;;;;;1.14;71.71;98194.75;4498754;31;20564;-73
2024/01/16 09:34:17;;;;;;;4.20;2.33;;;;;;;1.26;70.73;98193.22;4497462;31;20138;-73
2024/01/16 09:36:46;;;;;;;7.75;3.62;;;;;;;1.49;70.97;98190.97;4479037;32;20092;-73
2024/01/16 09:39:16;;;;;;;5.12;2.70;;;;;;;1.49;70.79;98186.63;4481343;32;20153;-72
2024/01/16 09:41:49;;;;;;;4.62;2.37;;;;;;;1.61;71.16;98189.41;4476547;32;20687;-70
2024/01/16 09:44:17;;;;;;;8.07;2.72;;;;;;;1.67;71.60;98195.00;4480323;32;20087;-71
2024/01/16 09:46:49;;;;;;;5.00;2.50;;;;;;;1.75;71.53;98187.59;4478986;32;20158;-72
2024/01/16 09:49:18;;;;;;;5.22;2.75;;;;;;;1.74;70.27;98195.44;4465901;32;20421;-73
2024/01/16 09:51:46;;;;;;;5.60;2.83;;;;;;;1.63;71.46;98192.69;4478125;32;20493;-72
2024/01/16 09:54:14;;;;;;;7.55;2.95;;;;;;;1.88;70.39;98197.16;4479182;32;20084;-73
2024/01/16 09:56:43;;;;;;;5.68;2.80;;;;;;;1.98;70.57;98194.81;4474426;32;20165;-72
2024/01/16 09:59:17;;;;;;;11.52;3.33;;;;;;;2.04;70.11;98186.69;4472955;32;20521;-73
2024/01/16 10:01:45;;;;;;;10.25;3.35;;;;;;;2.03;70.47;98192.75;4476128;32;20109;-72
2024/01/16 10:04:15;;;;;;;6.05;2.42;;;;;;;2.14;69.80;98190.34;4472217;32;20446;-72
2024/01/16 10:06:46;;;;;;;8.20;2.90;;;;;;;2.27;69.30;98190.38;4472490;32;20716;-72
2024/01/16 10:09:15;;;;;;;9.07;3.53;;;;;;;2.29;66.32;98199.69;4474203;32;20604;-72
2024/01/16 10:11:43;;;;;;;6.10;2.75;;;;;;;2.43;67.45;98195.37;4474525;32;20588;-72
2024/01/16 10:14:10;;;;;;;6.22;2.75;;;;;;;2.39;66.37;98186.16;4470862;32;20093;-72
2024/01/16 10:16:58;;;;;;;8.52;2.72;;;;;;;2.41;65.97;98184.31;4478942;32;20092;-72
2024/01/16 10:19:27;;;;;;;4.72;1.67;;;;;;;2.41;66.68;98184.31;4471106;32;20123;-72
2024/01/16 10:22:12;;;;;;;4.30;1.83;;;;;;;2.36;62.87;98194.94;4480776;32;20477;-72
2024/01/16 10:24:40;;;;;;;5.37;2.12;;;;;;;2.09;62.46;98185.47;4480368;32;20156;-72
2024/01/16 10:27:08;;;;;;;5.45;2.15;;;;;;;2.05;63.24;98184.00;4482762;31;20139;-72
2024/01/16 10:29:37;;;;;;;3.50;1.90;;;;;;;2.10;62.05;98189.69;4494067;31;20537;-72
2024/01/16 10:32:30;;;;;;;3.35;1.73;;;;;;;2.32;62.95;98185.75;4468410;31;20088;-72
2024/01/16 10:35:06;;;;;;;2.75;1.73;;;;;;;2.36;63.50;98181.19;4486573;31;20097;-73
2024/01/16 10:37:48;;;;;;;4.07;1.20;;;;;;;2.31;59.11;98184.91;4498273;31;20524;-71
2024/01/16 10:40:29;;;;;;;7.32;1.00;;;;;;;2.35;58.06;98184.69;4489734;31;20130;-73
2024/01/16 10:43:00;;;;;;;1.50;0.93;;;;;;;2.15;57.42;98186.84;4484743;31;20080;-72
2024/01/16 10:45:31;;;;;;;2.53;1.08;;;;;;;2.26;57.51;98186.97;4492005;31;20100;-73
2024/01/16 10:48:01;;;;;;;3.50;0.90;;;;;;;2.29;57.25;98191.12;4496125;31;20122;-73
2024/01/16 10:50:30;;;;;;;4.32;0.77;;;;;;;2.21;57.19;98195.94;4487439;31;20460;-73
2024/01/16 10:53:05;;;;;;;1.80;1.10;;;;;;;2.20;57.49;98186.53;4494810;31;20155;-72
2024/01/16 10:55:44;;;;;;;1.40;0.80;;;;;;;2.21;56.90;98194.19;4494981;31;20114;-72
2024/01/16 10:58:12;;;;;;;4.53;1.30;;;;;;;2.09;57.15;98187.19;4468324;31;20116;-74
2024/01/16 11:00:43;;;;;;;5.60;1.42;;;;;;;2.12;57.45;98187.03;4496645;31;20141;-72
2024/01/16 11:03:19;;;;;;;2.53;1.20;;;;;;;2.15;58.59;98191.16;4481764;31;20084;-72
2024/01/16 11:05:49;;;;;;;3.55;1.45;;;;;;;2.24;57.96;98194.00;4488148;31;20096;-74
2024/01/16 11:08:17;;;;;;;3.58;1.37;;;;;;;2.26;58.00;98186.16;4482505;31;20161;-73
2024/01/16 11:10:48;;;;;;;2.78;1.27;;;;;;;2.39;58.14;98186.16;4483104;31;20160;-73
2024/01/16 11:13:16;;;;;;;3.83;1.52;;;;;;;2.51;57.38;98190.53;4496801;31;20174;-73
2024/01/16 11:15:46;;;;;;;4.62;1.30;;;;;;;2.69;56.45;98190.25;4482657;31;20113;-72
2024/01/16 11:18:16;;;;;;;7.30;1.50;;;;;;;2.56;57.12;98180.72;4482545;31;20158;-71
2024/01/16 11:20:45;;;;;;;3.22;1.40;;;;;;;2.58;55.67;98183.22;4497322;31;20096;-72
2024/01/16 11:23:35;;;;;;;8.02;1.50;;;;;;;2.63;56.18;98184.56;4496831;31;20154;-71
2024/01/16 11:26:28;;;;;;;3.12;1.30;;;;;;;2.67;56.41;98190.34;4494033;31;20197;-73
2024/01/16 11:28:59;;;;;;;3.45;1.42;;;;;;;2.80;56.03;98177.41;4493258;31;20112;-72
2024/01/16 11:31:32;;;;;;;3.12;1.50;;;;;;;2.73;55.19;98179.59;4489430;31;20092;-72
2024/01/16 11:34:00;;;;;;;1.62;0.98;;;;;;;2.70;55.92;98182.41;4495104;31;20111;-71
2024/01/16 11:36:57;;;;;;;3.17;1.17;;;;;;;2.70;54.96;98191.91;4486410;31;20161;-71
2024/01/16 11:39:25;;;;;;;5.07;1.48;;;;;;;2.62;54.99;98195.84;4423197;32;20125;-71